Koun Maru — JK5556 — position and weather

sailwx.info

Track history (hours):
 
Tides and Currents Weather Stations Pressure Air Temp Water Temp Dewpoint Dewpoint Depression Visibility Wind Speed Wind Dir Waves Ship Positions

Koun Maru

Last reported at 2017-Aug-18 09:32 UTC. Time now 2017-Aug-18 10:55 UTC.
Position N 34°13' E 135°08'.

Length 40 m.

Type: Tanker. MMSI: 431401871.

Date/timePositionNaut miles runAvg speedWind from/ knotsBaromVisibWave heightAir tempDewpointWater temp
2017-Aug-18 09:32N 34°13' E 135°08'0 0.0
2017-Aug-18 09:07N 34°13' E 135°08'0 1.6
2017-Aug-18 09:00N 34°13' E 135°08'26 4.7
2017-Aug-18 03:27N 34°36' E 135°22'510.3
2017-Aug-18 03:00N 34°36' E 135°16'610.1
2017-Aug-18 02:26N 34°36' E 135°09'26 1.3
2017-Aug-17 06:56N 34°10' E 135°06'23 8.8
2017-Aug-17 04:22N 34°32' E 135°12'4 9.8
2017-Aug-17 03:57N 34°36' E 135°14'4 9.8
2017-Aug-17 03:31N 34°40' E 135°15'2 3.5
2017-Aug-17 02:57N 34°42' E 135°16'0 0.0
2017-Aug-17 02:27N 34°42' E 135°16'0 0.0
2017-Aug-17 01:57N 34°42' E 135°16'0 0.0
2017-Aug-17 01:27N 34°42' E 135°16'0 0.0
2017-Aug-17 00:57N 34°42' E 135°16'0 0.0
2017-Aug-17 00:30N 34°42' E 135°16'0 0.1
2017-Aug-17 00:00N 34°42' E 135°16'2 3.9
2017-Aug-16 23:30N 34°42' E 135°18'5 9.2
2017-Aug-16 22:56N 34°40' E 135°24'4 0.1
2017-Aug-15 23:18N 34°36' E 135°24'  
2017-Aug-13 03:37N 34°39' E 135°26'210.2
2017-Aug-13 03:25N 34°40' E 135°24'510.5
2017-Aug-13 02:58N 34°41' E 135°19'3 6.1
2017-Aug-13 02:25N 34°42' E 135°15'0 0.0
2017-Aug-13 01:55N 34°42' E 135°15'0 0.0
2017-Aug-13 01:19N 34°42' E 135°15'0 0.0
2017-Aug-13 00:55N 34°42' E 135°15'0 0.0
2017-Aug-13 00:25N 34°42' E 135°15'0 0.0
2017-Aug-12 23:58N 34°42' E 135°15'0 0.1
2017-Aug-12 23:30N 34°42' E 135°15'2 3.1
2017-Aug-12 23:00N 34°42' E 135°16'5 9.0
2017-Aug-12 22:29N 34°40' E 135°22'5 0.1
2017-Aug-11 03:07N 34°36' E 135°25'3 1.1
2017-Aug-11 00:48N 34°39' E 135°26'1 0.1
2017-Aug-10 00:43N 34°37' E 135°25'3 4.4
2017-Aug-10 00:03N 34°34' E 135°26'0 0.0
2017-Aug-09 23:45N 34°34' E 135°26'0 0.0
2017-Aug-09 23:27N 34°34' E 135°26'0 0.0
2017-Aug-09 22:55N 34°34' E 135°26'5 0.3
2017-Aug-09 09:09N 34°39' E 135°27'2 8.9
2017-Aug-09 08:56N 34°37' E 135°26'2 0.3
2017-Aug-09 03:39N 34°39' E 135°27'2 0.8
2017-Aug-09 00:41N 34°38' E 135°24'2 8.3
2017-Aug-09 00:27N 34°37' E 135°23'  
Track history (hours):
 
Tides and Currents Weather Stations Pressure Air Temp Water Temp Dewpoint Dewpoint Depression Visibility Wind Speed Wind Dir Waves Ship Positions

Koun Maru

Last reported at 2017-Aug-18 09:32 UTC. Time now 2017-Aug-18 10:55 UTC.
Position N 34°13' E 135°08'.

Length 40 m.

Type: Tanker. MMSI: 431401871.

Date/timePositionNaut miles runAvg speedWind from/ knotsBaromVisibWave heightAir tempDewpointWater temp
2017-Aug-18 09:32N 34°13' E 135°08'0 0.0
2017-Aug-18 09:07N 34°13' E 135°08'0 1.6
2017-Aug-18 09:00N 34°13' E 135°08'26 4.7
2017-Aug-18 03:27N 34°36' E 135°22'510.3
2017-Aug-18 03:00N 34°36' E 135°16'610.1
2017-Aug-18 02:26N 34°36' E 135°09'26 1.3
2017-Aug-17 06:56N 34°10' E 135°06'23 8.8
2017-Aug-17 04:22N 34°32' E 135°12'4 9.8
2017-Aug-17 03:57N 34°36' E 135°14'4 9.8
2017-Aug-17 03:31N 34°40' E 135°15'2 3.5
2017-Aug-17 02:57N 34°42' E 135°16'0 0.0
2017-Aug-17 02:27N 34°42' E 135°16'0 0.0
2017-Aug-17 01:57N 34°42' E 135°16'0 0.0
2017-Aug-17 01:27N 34°42' E 135°16'0 0.0
2017-Aug-17 00:57N 34°42' E 135°16'0 0.0
2017-Aug-17 00:30N 34°42' E 135°16'0 0.1
2017-Aug-17 00:00N 34°42' E 135°16'2 3.9
2017-Aug-16 23:30N 34°42' E 135°18'5 9.2
2017-Aug-16 22:56N 34°40' E 135°24'4 0.1
2017-Aug-15 23:18N 34°36' E 135°24'  
2017-Aug-13 03:37N 34°39' E 135°26'210.2
2017-Aug-13 03:25N 34°40' E 135°24'510.5
2017-Aug-13 02:58N 34°41' E 135°19'3 6.1
2017-Aug-13 02:25N 34°42' E 135°15'0 0.0
2017-Aug-13 01:55N 34°42' E 135°15'0 0.0
2017-Aug-13 01:19N 34°42' E 135°15'0 0.0
2017-Aug-13 00:55N 34°42' E 135°15'0 0.0
2017-Aug-13 00:25N 34°42' E 135°15'0 0.0
2017-Aug-12 23:58N 34°42' E 135°15'0 0.1
2017-Aug-12 23:30N 34°42' E 135°15'2 3.1
2017-Aug-12 23:00N 34°42' E 135°16'5 9.0
2017-Aug-12 22:29N 34°40' E 135°22'5 0.1
2017-Aug-11 03:07N 34°36' E 135°25'3 1.1
2017-Aug-11 00:48N 34°39' E 135°26'1 0.1
2017-Aug-10 00:43N 34°37' E 135°25'3 4.4
2017-Aug-10 00:03N 34°34' E 135°26'0 0.0
2017-Aug-09 23:45N 34°34' E 135°26'0 0.0
2017-Aug-09 23:27N 34°34' E 135°26'0 0.0
2017-Aug-09 22:55N 34°34' E 135°26'5 0.3
2017-Aug-09 09:09N 34°39' E 135°27'2 8.9
2017-Aug-09 08:56N 34°37' E 135°26'2 0.3
2017-Aug-09 03:39N 34°39' E 135°27'2 0.8
2017-Aug-09 00:41N 34°38' E 135°24'2 8.3
2017-Aug-09 00:27N 34°37' E 135°23'  

Dump ship's entire track history